createdAt,value
2018-02-07T00:00:39.702Z,29.75
2018-02-07T00:03:06.883Z,30.98
2018-02-07T00:05:36.597Z,30.77
2018-02-07T00:08:03.842Z,31.65
2018-02-07T00:10:30.682Z,29.60
2018-02-07T00:12:57.955Z,33.05
2018-02-07T00:15:25.245Z,31.15
2018-02-07T00:17:52.185Z,26.92
2018-02-07T00:20:19.245Z,29.27
2018-02-07T00:22:46.496Z,36.38
2018-02-07T00:25:13.790Z,37.38
2018-02-07T00:27:40.989Z,32.72
2018-02-07T00:30:08.507Z,31.27
2018-02-07T00:32:35.554Z,33.25
2018-02-07T00:35:02.727Z,27.20
2018-02-07T00:37:29.645Z,24.40
2018-02-07T00:39:57.233Z,30.17
2018-02-07T00:42:24.576Z,33.15
2018-02-07T00:44:51.657Z,35.00
2018-02-07T00:47:18.682Z,39.30
2018-02-07T00:49:46.023Z,38.40
2018-02-07T00:52:13.153Z,36.20
2018-02-07T00:54:40.022Z,40.55
2018-02-07T00:57:07.037Z,42.53
2018-02-07T00:59:34.037Z,41.58
2018-02-07T01:02:01.262Z,46.33
2018-02-07T01:04:28.654Z,36.38
2018-02-07T01:06:55.515Z,43.25
2018-02-07T01:09:22.343Z,40.20
2018-02-07T01:11:49.546Z,37.90
2018-02-07T01:14:16.694Z,53.70
2018-02-07T01:16:43.877Z,48.72
2018-02-07T01:19:10.925Z,45.92
2018-02-07T01:21:38.198Z,43.90
2018-02-07T01:24:05.058Z,43.05
2018-02-07T01:26:32.003Z,44.90
2018-02-07T01:28:59.305Z,49.42
2018-02-07T01:31:26.402Z,51.60
2018-02-07T01:33:53.753Z,43.25
2018-02-07T01:36:21.113Z,42.20
2018-02-07T01:38:48.301Z,47.72
2018-02-07T01:41:15.690Z,49.03
2018-02-07T01:43:42.614Z,46.22
2018-02-07T01:46:09.734Z,57.22
2018-02-07T01:48:37.136Z,55.00
2018-02-07T01:51:04.231Z,53.97
2018-02-07T01:53:31.430Z,55.67
2018-02-07T01:55:58.590Z,55.85
2018-02-07T01:58:25.749Z,48.72
2018-02-07T02:00:53.178Z,48.13
2018-02-07T02:03:20.374Z,51.55
2018-02-07T02:05:47.458Z,49.65
2018-02-07T02:08:14.614Z,52.17
2018-02-07T02:10:41.794Z,50.85
2018-02-07T02:13:08.881Z,54.85
2018-02-07T02:15:36.027Z,49.22
2018-02-07T02:18:03.294Z,47.15
2018-02-07T02:20:30.544Z,65.90
2018-02-07T02:22:57.621Z,54.53
2018-02-07T02:25:24.428Z,51.28
2018-02-07T02:27:51.606Z,48.40
2018-02-07T02:30:18.810Z,49.75
2018-02-07T02:32:46.048Z,46.90
2018-02-07T02:35:13.669Z,60.63
2018-02-07T02:37:41.026Z,69.72
2018-02-07T02:40:08.142Z,65.50
2018-02-07T02:42:35.054Z,67.05
2018-02-07T02:45:02.226Z,54.35
2018-02-07T02:47:29.141Z,57.42
2018-02-07T02:49:56.482Z,58.63
2018-02-07T02:52:23.433Z,54.70
2018-02-07T02:54:50.760Z,51.60
2018-02-07T02:57:17.662Z,49.72
2018-02-07T02:59:44.690Z,46.67
2018-02-07T03:02:12.109Z,43.92
2018-02-07T03:04:39.473Z,38.33
2018-02-07T03:07:06.382Z,40.90
2018-02-07T03:09:33.757Z,45.90
2018-02-07T03:12:01.261Z,41.15
2018-02-07T03:14:28.402Z,46.20
2018-02-07T03:16:55.342Z,44.25
2018-02-07T03:19:22.309Z,56.50
2018-02-07T03:21:49.624Z,52.38
2018-02-07T03:24:17.233Z,57.22
2018-02-07T03:26:44.112Z,54.05
2018-02-07T03:29:11.573Z,57.17
2018-02-07T03:31:38.870Z,56.67
2018-02-07T03:34:06.282Z,60.80
2018-02-07T03:36:33.360Z,61.67
2018-02-07T03:39:00.743Z,57.88
2018-02-07T03:41:28.450Z,58.63
2018-02-07T03:43:56.773Z,55.10
2018-02-07T03:46:25.100Z,65.40
2018-02-07T03:48:53.255Z,62.55
2018-02-07T03:51:21.222Z,67.60
2018-02-07T03:53:48.846Z,56.88
2018-02-07T03:56:17.458Z,63.33
2018-02-07T03:58:44.863Z,65.70
2018-02-07T04:01:11.982Z,66.35
2018-02-07T04:03:39.294Z,70.62
2018-02-07T04:06:06.531Z,67.18
2018-02-07T04:08:33.931Z,65.93
2018-02-07T04:11:01.038Z,49.45
2018-02-07T04:13:28.289Z,37.63
2018-02-07T04:15:55.938Z,35.25
2018-02-07T04:18:22.849Z,35.08
2018-02-07T04:20:49.797Z,32.95
2018-02-07T04:23:16.879Z,28.02
2018-02-07T04:25:43.649Z,28.77
2018-02-07T04:28:10.638Z,29.58
2018-02-07T04:30:37.899Z,31.85
2018-02-07T04:33:04.875Z,27.23
2018-02-07T04:35:32.319Z,25.62
2018-02-07T04:37:59.547Z,25.92
2018-02-07T04:40:26.810Z,27.30
2018-02-07T04:42:54.419Z,25.75
2018-02-07T04:45:21.601Z,29.42
2018-02-07T04:47:48.656Z,30.15
2018-02-07T04:50:15.675Z,38.05
2018-02-07T04:52:42.554Z,49.67
2018-02-07T04:55:10.026Z,40.30
2018-02-07T04:57:37.138Z,40.83
2018-02-07T05:00:04.361Z,40.33
2018-02-07T05:02:31.807Z,56.25
2018-02-07T05:04:58.734Z,53.13
2018-02-07T05:07:26.179Z,38.90
2018-02-07T05:09:53.382Z,52.15
2018-02-07T05:12:21.505Z,67.18
2018-02-07T05:14:48.597Z,73.85
2018-02-07T05:17:15.906Z,73.78
2018-02-07T05:19:42.913Z,96.87
2018-02-07T05:22:10.510Z,115.10
2018-02-07T05:24:37.701Z,114.32
2018-02-07T05:27:04.781Z,113.43
2018-02-07T05:29:31.765Z,106.80
2018-02-07T05:31:59.394Z,98.60
2018-02-07T05:34:26.906Z,93.93
2018-02-07T05:36:54.051Z,92.97
2018-02-07T05:39:21.429Z,84.72
2018-02-07T05:41:48.915Z,69.45
2018-02-07T05:44:16.137Z,80.62
2018-02-07T05:46:43.482Z,73.37
2018-02-07T05:49:10.582Z,95.93
2018-02-07T05:51:38.168Z,187.35
2018-02-07T05:54:05.831Z,216.55
2018-02-07T05:56:32.719Z,225.87
2018-02-07T05:58:59.998Z,105.45
2018-02-07T06:01:27.334Z,246.73
2018-02-07T06:03:54.516Z,125.03
2018-02-07T06:06:21.734Z,143.30
2018-02-07T06:08:48.698Z,79.57
2018-02-07T06:11:16.188Z,68.00
2018-02-07T06:13:43.363Z,63.58
2018-02-07T06:16:10.581Z,54.40
2018-02-07T06:18:37.833Z,66.45
2018-02-07T06:21:05.253Z,60.47
2018-02-07T06:23:32.456Z,73.00
2018-02-07T06:25:59.622Z,71.53
2018-02-07T06:28:26.985Z,66.37
2018-02-07T06:30:54.314Z,75.10
2018-02-07T06:33:21.509Z,57.55
2018-02-07T06:35:48.509Z,52.17
2018-02-07T06:38:15.521Z,40.60
2018-02-07T06:40:42.894Z,35.95
2018-02-07T06:43:10.007Z,33.28
2018-02-07T06:45:37.222Z,28.15
2018-02-07T06:48:04.230Z,30.12
2018-02-07T06:50:31.459Z,30.27
2018-02-07T06:52:58.682Z,35.13
2018-02-07T06:55:26.056Z,32.05
2018-02-07T06:57:53.098Z,34.67
2018-02-07T07:00:20.484Z,31.83
2018-02-07T07:02:47.493Z,43.67
2018-02-07T07:05:14.833Z,40.63
2018-02-07T07:07:42.244Z,49.83
2018-02-07T07:10:10.003Z,51.40
2018-02-07T07:12:37.075Z,42.00
2018-02-07T07:15:04.173Z,31.75
2018-02-07T07:17:31.317Z,30.73
2018-02-07T07:19:58.528Z,34.30
2018-02-07T07:22:25.938Z,35.70
2018-02-07T07:24:52.817Z,40.90
2018-02-07T07:27:20.274Z,29.33
2018-02-07T07:29:47.239Z,32.88
2018-02-07T07:32:14.346Z,35.10
2018-02-07T07:34:41.497Z,37.25
2018-02-07T07:37:08.757Z,42.60
2018-02-07T07:39:35.766Z,31.67
2018-02-07T07:42:03.078Z,32.70
2018-02-07T07:44:30.449Z,39.22
2018-02-07T07:46:57.382Z,33.97
2018-02-07T07:49:24.406Z,35.70
2018-02-07T07:51:51.659Z,51.35
2018-02-07T07:54:18.825Z,60.17
2018-02-07T07:56:46.102Z,61.92
2018-02-07T07:59:13.286Z,63.85
2018-02-07T08:01:40.562Z,55.83
2018-02-07T08:04:07.851Z,61.17
2018-02-07T08:06:34.921Z,51.37
2018-02-07T08:09:01.965Z,56.70
2018-02-07T08:11:28.944Z,58.67
2018-02-07T08:13:56.358Z,41.03
2018-02-07T08:16:23.526Z,34.40
2018-02-07T08:18:50.647Z,35.47
2018-02-07T08:21:17.914Z,38.42
2018-02-07T08:23:45.014Z,42.95
2018-02-07T08:26:12.486Z,44.65
2018-02-07T08:28:39.525Z,42.38
2018-02-07T08:31:06.941Z,39.00
2018-02-07T08:33:34.370Z,33.58
2018-02-07T08:36:01.710Z,38.63
2018-02-07T08:38:28.957Z,42.90
2018-02-07T08:40:56.038Z,41.13
2018-02-07T08:43:23.694Z,43.72
2018-02-07T08:45:51.040Z,42.95
2018-02-07T08:48:18.433Z,41.55
2018-02-07T08:50:45.485Z,34.95
2018-02-07T08:53:13.216Z,35.55
2018-02-07T08:55:40.413Z,38.13
2018-02-07T08:58:08.006Z,39.25
2018-02-07T09:00:35.054Z,40.88
2018-02-07T09:03:02.218Z,41.25
2018-02-07T09:05:29.671Z,66.80
2018-02-07T09:07:58.010Z,60.72
2018-02-07T09:10:25.345Z,66.03
2018-02-07T09:12:52.560Z,55.08
2018-02-07T09:15:20.065Z,47.67
2018-02-07T09:17:47.588Z,51.40
2018-02-07T09:20:14.614Z,63.35
2018-02-07T09:22:42.031Z,64.80
2018-02-07T09:25:09.214Z,44.95
2018-02-07T09:27:36.758Z,56.75
2018-02-07T09:30:04.365Z,52.08
2018-02-07T09:32:31.578Z,50.12
2018-02-07T09:34:58.959Z,40.33
2018-02-07T09:37:26.417Z,39.60
2018-02-07T09:39:53.883Z,41.70
2018-02-07T09:42:21.223Z,38.17
2018-02-07T09:44:48.900Z,41.00
2018-02-07T09:47:16.274Z,45.67
2018-02-07T09:49:44.122Z,57.20
2018-02-07T09:52:11.290Z,62.20
2018-02-07T09:54:38.824Z,72.35
2018-02-07T09:57:05.753Z,67.22
2018-02-07T09:59:32.850Z,80.65
2018-02-07T10:02:00.371Z,63.08
2018-02-07T10:04:28.249Z,51.75
2018-02-07T10:06:55.718Z,40.28
2018-02-07T10:09:23.130Z,37.65
2018-02-07T10:11:50.547Z,30.98
2018-02-07T10:14:18.055Z,31.40
2018-02-07T10:16:45.186Z,26.15
2018-02-07T10:19:12.252Z,34.53
2018-02-07T10:21:39.433Z,31.42
2018-02-07T10:24:06.563Z,24.15
2018-02-07T10:26:33.790Z,21.25
2018-02-07T10:29:01.047Z,21.58
2018-02-07T10:31:28.474Z,23.38
2018-02-07T10:33:55.858Z,20.45
2018-02-07T10:36:23.311Z,18.12
2018-02-07T10:38:50.987Z,19.55
2018-02-07T10:41:18.206Z,17.30
2018-02-07T10:43:45.594Z,15.68
2018-02-07T10:46:12.994Z,18.30
2018-02-07T10:48:40.668Z,19.25
2018-02-07T10:51:07.677Z,15.40
2018-02-07T10:53:34.810Z,16.80
2018-02-07T10:56:01.946Z,15.23
2018-02-07T10:58:29.211Z,13.87
2018-02-07T11:00:56.385Z,16.07
2018-02-07T11:03:23.443Z,12.97
2018-02-07T11:05:50.597Z,17.80
2018-02-07T11:08:17.736Z,9.97
2018-02-07T11:10:45.186Z,14.20
2018-02-07T11:13:12.474Z,12.67
2018-02-07T11:15:39.518Z,13.17
2018-02-07T11:18:06.597Z,13.97
2018-02-07T11:20:33.736Z,18.80
2018-02-07T11:23:00.670Z,16.63
2018-02-07T11:25:28.033Z,20.20
2018-02-07T11:27:55.536Z,19.15
2018-02-07T11:30:23.014Z,20.08
2018-02-07T11:32:50.330Z,19.92
2018-02-07T11:35:17.198Z,18.95
2018-02-07T11:37:44.414Z,22.17
2018-02-07T11:40:11.505Z,25.40
2018-02-07T11:42:38.520Z,22.37
2018-02-07T11:45:05.545Z,17.23
2018-02-07T11:47:32.718Z,16.85
2018-02-07T11:50:00.460Z,17.15
2018-02-07T11:52:27.935Z,18.42
2018-02-07T11:54:55.345Z,12.98
2018-02-07T11:57:22.936Z,17.58
2018-02-07T11:59:50.170Z,25.98
2018-02-07T12:02:17.470Z,18.40
2018-02-07T12:04:44.773Z,19.65
2018-02-07T12:07:12.858Z,16.92
2018-02-07T12:09:40.149Z,17.33
2018-02-07T12:12:07.872Z,23.83
2018-02-07T12:14:35.521Z,18.62
2018-02-07T12:17:03.708Z,18.42
2018-02-07T12:19:31.142Z,19.35
2018-02-07T12:21:58.744Z,16.83
2018-02-07T12:24:25.971Z,16.33
2018-02-07T12:26:53.172Z,22.92
2018-02-07T12:29:20.553Z,20.27
2018-02-07T12:31:47.859Z,19.05
2018-02-07T12:34:15.330Z,18.75
2018-02-07T12:36:42.489Z,19.98
2018-02-07T12:39:09.694Z,16.90
2018-02-07T12:41:36.798Z,18.00
2018-02-07T12:44:05.028Z,18.70
2018-02-07T12:46:32.596Z,20.98
2018-02-07T12:49:00.154Z,22.95
2018-02-07T12:51:27.733Z,20.05
2018-02-07T12:53:55.031Z,22.02
2018-02-07T12:56:22.935Z,25.15
2018-02-07T12:58:50.263Z,20.70
2018-02-07T13:01:17.533Z,20.00
2018-02-07T13:03:44.725Z,25.12
2018-02-07T13:06:12.353Z,16.77
2018-02-07T13:08:39.654Z,18.15
2018-02-07T13:11:07.289Z,18.87
2018-02-07T13:13:34.963Z,19.92
2018-02-07T13:16:02.390Z,21.02
2018-02-07T13:18:29.531Z,22.45
2018-02-07T13:20:56.821Z,18.60
2018-02-07T13:23:23.949Z,25.97
2018-02-07T13:25:51.129Z,19.50
2018-02-07T13:28:18.294Z,18.57
2018-02-07T13:30:45.658Z,21.93
2018-02-07T13:33:13.234Z,18.97
2018-02-07T13:35:40.512Z,22.13
2018-02-07T13:38:07.650Z,20.53
2018-02-07T13:40:34.649Z,15.33
2018-02-07T13:43:02.014Z,21.13
2018-02-07T13:45:32.738Z,24.03
2018-02-07T13:48:00.233Z,20.73
2018-02-07T13:50:27.522Z,17.73
2018-02-07T13:52:54.991Z,18.13
2018-02-07T13:55:22.041Z,16.13
2018-02-07T13:57:49.582Z,26.30
2018-02-07T14:00:16.822Z,18.27
2018-02-07T14:02:44.095Z,20.20
2018-02-07T14:05:11.138Z,16.60
2018-02-07T14:07:38.190Z,22.17
2018-02-07T14:10:06.447Z,19.63
2018-02-07T14:12:33.936Z,20.67
2018-02-07T14:15:01.465Z,23.23
2018-02-07T14:17:28.718Z,22.13
2018-02-07T14:19:55.966Z,22.37
2018-02-07T14:22:22.991Z,21.40
2018-02-07T14:24:50.180Z,18.50
2018-02-07T14:27:17.222Z,25.90
2018-02-07T14:29:44.586Z,29.10
2018-02-07T14:32:11.814Z,27.10
2018-02-07T14:34:38.873Z,31.33
2018-02-07T14:37:06.182Z,35.33
2018-02-07T14:39:34.197Z,30.80
2018-02-07T14:42:01.593Z,32.22
2018-02-07T14:44:28.875Z,31.25
2018-02-07T14:46:56.293Z,25.52
2018-02-07T14:49:23.554Z,29.30
2018-02-07T14:51:50.951Z,29.42
2018-02-07T14:54:19.147Z,26.27
2018-02-07T14:56:46.314Z,26.12
2018-02-07T14:59:13.870Z,27.85
2018-02-07T15:01:41.319Z,25.83
2018-02-07T15:04:09.353Z,25.42
2018-02-07T15:06:37.156Z,32.05
2018-02-07T15:09:04.826Z,27.37
2018-02-07T15:11:31.974Z,29.35
2018-02-07T15:13:59.302Z,26.20
2018-02-07T15:16:26.254Z,40.25
2018-02-07T15:18:53.947Z,31.70
2018-02-07T15:21:21.294Z,35.30
2018-02-07T15:23:48.419Z,35.42
2018-02-07T15:26:15.904Z,33.00
2018-02-07T15:28:43.352Z,35.20
2018-02-07T15:31:10.803Z,33.83
2018-02-07T15:33:38.014Z,31.35
2018-02-07T15:36:05.081Z,31.10
2018-02-07T15:38:32.346Z,31.90
2018-02-07T15:40:59.510Z,31.37
2018-02-07T15:43:26.811Z,41.80
2018-02-07T15:45:54.226Z,36.35
2018-02-07T15:48:21.372Z,34.63
2018-02-07T15:50:48.546Z,41.10
2018-02-07T15:53:15.393Z,32.40
2018-02-07T15:55:42.908Z,36.90
2018-02-07T15:58:10.374Z,32.58
2018-02-07T16:00:37.428Z,29.20
2018-02-07T16:03:04.539Z,35.00
2018-02-07T16:05:31.634Z,35.45
2018-02-07T16:07:58.950Z,38.00
2018-02-07T16:10:25.878Z,35.78
2018-02-07T16:12:53.310Z,40.80
2018-02-07T16:15:20.652Z,41.58
2018-02-07T16:17:48.107Z,42.65
2018-02-07T16:20:15.341Z,39.90
2018-02-07T16:22:42.786Z,49.97
2018-02-07T16:25:10.098Z,39.78
2018-02-07T16:27:37.202Z,36.63
2018-02-07T16:30:04.321Z,33.58
2018-02-07T16:32:31.446Z,40.65
2018-02-07T16:34:58.862Z,39.47
2018-02-07T16:37:26.154Z,41.75
2018-02-07T16:39:53.885Z,39.03
2018-02-07T16:42:21.189Z,34.03
2018-02-07T16:44:48.202Z,35.05
2018-02-07T16:47:15.341Z,40.75
2018-02-07T16:49:42.774Z,37.85
2018-02-07T16:52:10.352Z,37.17
2018-02-07T16:54:37.565Z,47.03
2018-02-07T16:57:04.855Z,41.08
2018-02-07T16:59:32.086Z,35.70
2018-02-07T17:01:59.303Z,33.20
2018-02-07T17:04:26.642Z,34.55
2018-02-07T17:06:54.158Z,40.90
2018-02-07T17:09:21.732Z,38.50
2018-02-07T17:11:49.242Z,41.05
2018-02-07T17:14:16.719Z,39.72
2018-02-07T17:16:44.467Z,33.53
2018-02-07T17:19:11.665Z,40.28
2018-02-07T17:21:38.965Z,43.90
2018-02-07T17:24:06.464Z,38.70
2018-02-07T17:26:33.779Z,42.40
2018-02-07T17:29:01.346Z,41.05
2018-02-07T17:31:28.751Z,38.80
2018-02-07T17:33:56.029Z,39.28
2018-02-07T17:36:23.685Z,39.40
2018-02-07T17:38:51.099Z,46.30
2018-02-07T17:41:18.202Z,41.97
2018-02-07T17:43:45.706Z,44.72
2018-02-07T17:46:13.011Z,40.53
2018-02-07T17:48:40.382Z,46.65
2018-02-07T17:51:07.341Z,48.50
2018-02-07T17:53:34.599Z,41.42
2018-02-07T17:56:01.650Z,48.33
2018-02-07T17:58:28.731Z,51.60
2018-02-07T18:00:55.735Z,49.75
2018-02-07T18:03:23.782Z,52.65
2018-02-07T18:05:51.414Z,48.20
2018-02-07T18:08:18.868Z,46.10
2018-02-07T18:10:46.135Z,44.42
2018-02-07T18:13:13.402Z,50.83
2018-02-07T18:15:40.724Z,47.28
2018-02-07T18:18:08.094Z,45.15
2018-02-07T18:20:35.200Z,48.63
2018-02-07T18:23:02.734Z,47.67
2018-02-07T18:25:30.093Z,41.67
2018-02-07T18:27:57.398Z,42.03
2018-02-07T18:30:25.286Z,42.85
2018-02-07T18:32:52.819Z,46.53
2018-02-07T18:35:19.776Z,41.83
2018-02-07T18:37:47.022Z,39.85
2018-02-07T18:40:14.290Z,46.08
2018-02-07T18:42:41.533Z,44.20
2018-02-07T18:45:08.825Z,40.88
2018-02-07T18:47:36.174Z,42.10
2018-02-07T18:50:03.475Z,43.97
2018-02-07T18:52:30.597Z,47.85
2018-02-07T18:54:57.708Z,47.75
2018-02-07T18:57:25.314Z,48.92
2018-02-07T18:59:52.424Z,46.97
2018-02-07T19:02:19.999Z,46.97
2018-02-07T19:04:47.218Z,53.72
2018-02-07T19:07:14.666Z,44.38
2018-02-07T19:09:41.866Z,52.28
2018-02-07T19:12:08.825Z,46.60
2018-02-07T19:14:35.806Z,54.10
2018-02-07T19:17:03.091Z,49.50
2018-02-07T19:19:30.011Z,52.58
2018-02-07T19:21:57.283Z,44.42
2018-02-07T19:24:24.537Z,52.83
2018-02-07T19:26:51.856Z,50.10
2018-02-07T19:29:19.097Z,41.85
2018-02-07T19:31:46.330Z,47.80
2018-02-07T19:34:13.845Z,45.45
2018-02-07T19:36:41.369Z,42.15
2018-02-07T19:39:08.562Z,43.83
2018-02-07T19:41:35.989Z,51.28
2018-02-07T19:44:03.893Z,45.03
2018-02-07T19:46:31.135Z,46.58
2018-02-07T19:48:58.225Z,45.80
2018-02-07T19:51:25.749Z,45.70
2018-02-07T19:53:53.198Z,45.17
2018-02-07T19:56:20.685Z,47.22
2018-02-07T19:58:48.378Z,51.00
2018-02-07T20:01:15.782Z,52.40
2018-02-07T20:03:43.247Z,47.88
2018-02-07T20:06:10.626Z,48.90
2018-02-07T20:08:38.106Z,50.08
2018-02-07T20:11:05.137Z,53.60
2018-02-07T20:13:32.396Z,42.90
2018-02-07T20:15:59.760Z,44.88
2018-02-07T20:18:26.983Z,47.42
2018-02-07T20:20:54.735Z,52.20
2018-02-07T20:23:21.938Z,58.17
2018-02-07T20:25:49.310Z,68.47
2018-02-07T20:28:16.953Z,53.92
2018-02-07T20:30:44.325Z,44.75
2018-02-07T20:33:11.558Z,55.17
2018-02-07T20:35:38.834Z,62.38
2018-02-07T20:38:05.959Z,68.10
2018-02-07T20:40:33.598Z,55.55
2018-02-07T20:43:00.900Z,56.42
2018-02-07T20:45:28.507Z,54.17
2018-02-07T20:47:55.678Z,50.35
2018-02-07T20:50:23.270Z,54.92
2018-02-07T20:52:50.750Z,62.95
2018-02-07T20:55:17.730Z,57.97
2018-02-07T20:57:45.354Z,58.42
2018-02-07T21:00:12.591Z,51.58
2018-02-07T21:02:40.845Z,49.33
2018-02-07T21:05:08.279Z,48.22
2018-02-07T21:07:35.817Z,55.63
2018-02-07T21:10:03.381Z,55.50
2018-02-07T21:12:30.425Z,45.92
2018-02-07T21:14:57.765Z,59.65
2018-02-07T21:17:32.402Z,46.28
2018-02-07T21:20:00.109Z,57.50
2018-02-07T21:22:27.277Z,56.55
2018-02-07T21:24:54.250Z,58.15
2018-02-07T21:27:22.222Z,55.80
2018-02-07T21:29:49.526Z,57.70
2018-02-07T21:32:17.794Z,57.97
2018-02-07T21:34:45.081Z,54.97
2018-02-07T21:34:49.761Z,42.77
2018-02-07T21:37:12.594Z,55.28
2018-02-07T21:37:16.779Z,40.40
2018-02-07T21:39:40.152Z,58.25
2018-02-07T21:42:07.624Z,72.12
2018-02-07T21:44:35.326Z,66.97
2018-02-07T21:47:02.820Z,62.78
2018-02-07T21:49:30.120Z,56.33
2018-02-07T21:51:57.579Z,49.67
2018-02-07T21:54:24.992Z,53.65
2018-02-07T21:56:52.849Z,53.53
2018-02-07T21:59:20.095Z,57.10
2018-02-07T22:01:47.405Z,57.22
2018-02-07T22:04:14.739Z,52.47
2018-02-07T22:06:42.090Z,49.72
2018-02-07T22:09:09.398Z,49.75
2018-02-07T22:11:37.077Z,52.88
2018-02-07T22:14:04.376Z,53.25
2018-02-07T22:16:31.562Z,57.33
2018-02-07T22:18:58.870Z,59.40
2018-02-07T22:21:26.271Z,61.05
2018-02-07T22:23:53.886Z,51.25
2018-02-07T22:26:21.269Z,66.72
2018-02-07T22:28:48.498Z,46.40
2018-02-07T22:31:15.930Z,60.28
2018-02-07T22:33:43.498Z,57.58
2018-02-07T22:36:10.503Z,54.65
2018-02-07T22:38:37.669Z,56.40
2018-02-07T22:41:05.334Z,51.25
2018-02-07T22:43:32.821Z,55.42
2018-02-07T22:46:00.628Z,52.45
2018-02-07T22:48:28.006Z,53.38
2018-02-07T22:50:55.675Z,54.20
2018-02-07T22:53:23.613Z,49.30
2018-02-07T22:55:50.966Z,50.58
2018-02-07T22:58:18.264Z,53.85
2018-02-07T23:00:45.386Z,51.20
2018-02-07T23:03:12.741Z,55.63
2018-02-07T23:05:40.245Z,57.03
2018-02-07T23:08:07.425Z,63.20
2018-02-07T23:10:34.856Z,66.75
2018-02-07T23:13:02.048Z,58.45
2018-02-07T23:15:29.235Z,62.35
2018-02-07T23:17:56.791Z,58.15
2018-02-07T23:20:23.900Z,65.75
2018-02-07T23:22:51.162Z,61.95
2018-02-07T23:25:18.473Z,63.90
2018-02-07T23:27:46.114Z,63.00
2018-02-07T23:30:13.747Z,69.20
2018-02-07T23:32:41.114Z,78.93
2018-02-07T23:35:08.210Z,69.90
2018-02-07T23:37:35.892Z,66.40
2018-02-07T23:40:03.298Z,71.75
2018-02-07T23:42:30.697Z,74.53
2018-02-07T23:44:58.301Z,68.22
2018-02-07T23:47:25.498Z,57.62
2018-02-07T23:49:52.845Z,59.10
2018-02-07T23:52:20.196Z,64.55
2018-02-07T23:54:47.686Z,64.87
2018-02-07T23:57:14.986Z,65.22
2018-02-07T23:59:42.131Z,68.32
